createdAt,value
2018-03-22T00:00:48.778Z,966.64
2018-03-22T00:01:48.747Z,966.66
2018-03-22T00:02:48.716Z,966.61
2018-03-22T00:03:48.685Z,966.63
2018-03-22T00:04:48.653Z,966.67
2018-03-22T00:05:48.622Z,966.65
2018-03-22T00:06:48.590Z,966.62
2018-03-22T00:07:48.558Z,966.60
2018-03-22T00:08:48.527Z,966.60
2018-03-22T00:09:48.496Z,966.61
2018-03-22T00:10:48.463Z,966.56
2018-03-22T00:11:48.492Z,966.56
2018-03-22T00:12:48.401Z,966.58
2018-03-22T00:13:48.372Z,966.61
2018-03-22T00:14:48.339Z,966.60
2018-03-22T00:15:48.307Z,966.60
2018-03-22T00:16:48.273Z,966.64
2018-03-22T00:17:48.243Z,966.66
2018-03-22T00:18:48.212Z,966.65
2018-03-22T00:19:48.182Z,966.60
2018-03-22T00:20:48.152Z,966.66
2018-03-22T00:21:48.117Z,966.62
2018-03-22T00:22:48.087Z,966.61
2018-03-22T00:23:48.056Z,966.61
2018-03-22T00:24:48.024Z,966.55
2018-03-22T00:25:47.991Z,966.53
2018-03-22T00:26:47.961Z,966.52
2018-03-22T00:27:47.930Z,966.51
2018-03-22T00:28:47.897Z,966.44
2018-03-22T00:29:47.866Z,966.50
2018-03-22T00:30:47.833Z,966.48
2018-03-22T00:31:47.804Z,966.45
2018-03-22T00:32:47.774Z,966.47
2018-03-22T00:33:47.739Z,966.46
2018-03-22T00:34:47.707Z,966.49
2018-03-22T00:35:48.427Z,966.48
2018-03-22T00:36:47.644Z,966.49
2018-03-22T00:37:47.613Z,966.46
2018-03-22T00:38:47.582Z,966.48
2018-03-22T00:39:47.550Z,966.48
2018-03-22T00:40:47.517Z,966.47
2018-03-22T00:41:47.487Z,966.48
2018-03-22T00:42:47.454Z,966.45
2018-03-22T00:43:47.424Z,966.43
2018-03-22T00:44:47.392Z,966.39
2018-03-22T00:45:47.362Z,966.39
2018-03-22T00:46:48.079Z,966.34
2018-03-22T00:47:47.297Z,966.37
2018-03-22T00:48:47.265Z,966.35
2018-03-22T00:49:47.234Z,966.33
2018-03-22T00:50:47.202Z,966.28
2018-03-22T00:51:47.171Z,966.28
2018-03-22T00:52:47.138Z,966.26
2018-03-22T00:53:47.110Z,966.27
2018-03-22T00:54:47.076Z,966.27
2018-03-22T00:55:47.044Z,966.25
2018-03-22T00:56:47.012Z,966.28
2018-03-22T00:57:46.981Z,966.28
2018-03-22T00:58:46.949Z,966.27
2018-03-22T00:59:46.917Z,966.27
2018-03-22T01:00:46.885Z,966.26
2018-03-22T01:01:46.853Z,966.22
2018-03-22T01:02:46.824Z,966.21
2018-03-22T01:03:46.790Z,966.18
2018-03-22T01:04:46.757Z,966.17
2018-03-22T01:05:46.726Z,966.15
2018-03-22T01:06:46.695Z,966.18
2018-03-22T01:07:46.663Z,966.12
2018-03-22T01:08:46.630Z,966.14
2018-03-22T01:09:46.598Z,966.07
2018-03-22T01:10:46.580Z,966.06
2018-03-22T01:11:46.536Z,966.07
2018-03-22T01:12:46.503Z,966.04
2018-03-22T01:13:46.472Z,965.98
2018-03-22T01:14:46.444Z,966.01
2018-03-22T01:15:46.408Z,966.01
2018-03-22T01:16:46.381Z,965.99
2018-03-22T01:17:46.344Z,965.97
2018-03-22T01:18:46.312Z,965.95
2018-03-22T01:19:46.280Z,965.92
2018-03-22T01:20:46.247Z,965.94
2018-03-22T01:21:46.214Z,965.92
2018-03-22T01:22:46.192Z,965.89
2018-03-22T01:23:46.152Z,965.88
2018-03-22T01:24:46.119Z,965.84
2018-03-22T01:25:46.087Z,965.79
2018-03-22T01:26:46.057Z,965.81
2018-03-22T01:27:46.024Z,965.76
2018-03-22T01:28:45.992Z,965.78
2018-03-22T01:29:45.960Z,965.74
2018-03-22T01:30:45.927Z,965.74
2018-03-22T01:31:45.895Z,965.72
2018-03-22T01:32:45.862Z,965.73
2018-03-22T01:33:45.831Z,965.70
2018-03-22T01:34:45.799Z,965.68
2018-03-22T01:35:45.767Z,965.69
2018-03-22T01:36:45.735Z,965.68
2018-03-22T01:37:45.702Z,965.69
2018-03-22T01:38:45.671Z,965.67
2018-03-22T01:39:45.639Z,965.66
2018-03-22T01:40:45.607Z,965.66
2018-03-22T01:41:45.574Z,965.63
2018-03-22T01:42:45.542Z,965.60
2018-03-22T01:43:45.510Z,965.58
2018-03-22T01:44:46.978Z,965.56
2018-03-22T01:45:45.445Z,965.59
2018-03-22T01:46:45.414Z,965.59
2018-03-22T01:47:45.382Z,965.58
2018-03-22T01:48:45.349Z,965.58
2018-03-22T01:49:45.317Z,965.54
2018-03-22T01:50:47.537Z,965.53
2018-03-22T01:51:45.252Z,965.51
2018-03-22T01:52:45.220Z,965.50
2018-03-22T01:53:45.187Z,965.51
2018-03-22T01:54:45.156Z,965.46
2018-03-22T01:55:45.124Z,965.50
2018-03-22T01:56:45.092Z,965.53
2018-03-22T01:57:45.058Z,965.50
2018-03-22T01:58:45.028Z,965.45
2018-03-22T01:59:44.994Z,965.45
2018-03-22T02:00:44.962Z,965.41
2018-03-22T02:01:44.936Z,965.42
2018-03-22T02:02:44.899Z,965.39
2018-03-22T02:03:44.867Z,965.38
2018-03-22T02:04:44.834Z,965.39
2018-03-22T02:05:44.801Z,965.37
2018-03-22T02:06:44.770Z,965.33
2018-03-22T02:07:44.737Z,965.33
2018-03-22T02:08:44.705Z,965.34
2018-03-22T02:09:44.673Z,965.34
2018-03-22T02:10:44.642Z,965.33
2018-03-22T02:11:44.609Z,965.32
2018-03-22T02:12:44.576Z,965.33
2018-03-22T02:13:44.542Z,965.33
2018-03-22T02:14:44.510Z,965.30
2018-03-22T02:15:44.479Z,965.34
2018-03-22T02:16:44.445Z,965.31
2018-03-22T02:17:44.415Z,965.26
2018-03-22T02:18:44.388Z,965.29
2018-03-22T02:19:44.350Z,965.28
2018-03-22T02:20:44.317Z,965.25
2018-03-22T02:21:44.286Z,965.24
2018-03-22T02:22:44.252Z,965.27
2018-03-22T02:23:44.223Z,965.21
2018-03-22T02:24:44.188Z,965.23
2018-03-22T02:25:44.155Z,965.21
2018-03-22T02:26:44.123Z,965.24
2018-03-22T02:27:44.092Z,965.22
2018-03-22T02:28:44.058Z,965.22
2018-03-22T02:29:44.027Z,965.19
2018-03-22T02:30:43.995Z,965.18
2018-03-22T02:31:43.968Z,965.14
2018-03-22T02:32:43.929Z,965.14
2018-03-22T02:33:43.901Z,965.09
2018-03-22T02:34:43.865Z,965.09
2018-03-22T02:35:43.835Z,965.08
2018-03-22T02:36:43.801Z,965.11
2018-03-22T02:37:43.775Z,965.08
2018-03-22T02:38:43.737Z,965.10
2018-03-22T02:39:43.703Z,965.09
2018-03-22T02:40:43.672Z,965.09
2018-03-22T02:41:43.639Z,965.11
2018-03-22T02:42:43.623Z,965.08
2018-03-22T02:43:43.575Z,965.09
2018-03-22T02:44:43.541Z,965.12
2018-03-22T02:45:43.515Z,965.13
2018-03-22T02:46:43.477Z,965.11
2018-03-22T02:47:43.445Z,965.14
2018-03-22T02:48:43.412Z,965.10
2018-03-22T02:49:43.379Z,965.15
2018-03-22T02:50:43.347Z,965.13
2018-03-22T02:51:43.317Z,965.12
2018-03-22T02:52:43.284Z,965.05
2018-03-22T02:53:43.251Z,965.07
2018-03-22T02:54:43.241Z,965.06
2018-03-22T02:55:43.185Z,965.02
2018-03-22T02:56:43.152Z,965.02
2018-03-22T02:57:43.122Z,964.99
2018-03-22T02:58:43.089Z,964.99
2018-03-22T02:59:43.055Z,964.94
2018-03-22T03:00:43.022Z,964.97
2018-03-22T03:01:42.991Z,964.92
2018-03-22T03:02:42.960Z,964.95
2018-03-22T03:03:42.925Z,964.94
2018-03-22T03:04:42.892Z,964.94
2018-03-22T03:05:42.863Z,964.94
2018-03-22T03:06:42.827Z,964.90
2018-03-22T03:07:42.796Z,964.92
2018-03-22T03:08:42.762Z,964.90
2018-03-22T03:09:42.730Z,964.88
2018-03-22T03:10:42.697Z,964.86
2018-03-22T03:11:43.416Z,964.88
2018-03-22T03:12:42.634Z,964.85
2018-03-22T03:13:42.600Z,964.84
2018-03-22T03:14:42.568Z,964.83
2018-03-22T03:15:42.535Z,964.75
2018-03-22T03:16:42.503Z,964.76
2018-03-22T03:17:42.471Z,964.74
2018-03-22T03:18:42.437Z,964.73
2018-03-22T03:19:42.406Z,964.73
2018-03-22T03:20:42.373Z,964.75
2018-03-22T03:21:42.341Z,964.74
2018-03-22T03:22:42.309Z,964.72
2018-03-22T03:23:42.275Z,964.74
2018-03-22T03:24:42.243Z,964.72
2018-03-22T03:25:42.211Z,964.71
2018-03-22T03:26:42.179Z,964.72
2018-03-22T03:27:42.148Z,964.76
2018-03-22T03:28:42.116Z,964.80
2018-03-22T03:29:42.084Z,964.79
2018-03-22T03:30:42.051Z,964.83
2018-03-22T03:31:42.021Z,964.84
2018-03-22T03:32:41.985Z,964.86
2018-03-22T03:33:41.953Z,964.85
2018-03-22T03:34:41.925Z,964.86
2018-03-22T03:35:41.890Z,964.85
2018-03-22T03:36:41.856Z,964.84
2018-03-22T03:37:41.823Z,964.85
2018-03-22T03:38:41.790Z,964.89
2018-03-22T03:39:41.760Z,964.86
2018-03-22T03:40:41.725Z,964.87
2018-03-22T03:41:41.695Z,964.83
2018-03-22T03:42:41.662Z,964.83
2018-03-22T03:43:41.630Z,964.90
2018-03-22T03:44:41.597Z,964.90
2018-03-22T03:45:41.568Z,964.90
2018-03-22T03:46:41.533Z,964.90
2018-03-22T03:47:41.501Z,964.90
2018-03-22T03:48:41.468Z,964.90
2018-03-22T03:49:41.436Z,964.89
2018-03-22T03:50:41.403Z,964.86
2018-03-22T03:51:41.371Z,964.88
2018-03-22T03:52:41.338Z,964.88
2018-03-22T03:53:41.306Z,964.86
2018-03-22T03:54:41.274Z,964.83
2018-03-22T03:55:41.242Z,964.86
2018-03-22T03:56:41.208Z,964.81
2018-03-22T03:57:41.176Z,964.79
2018-03-22T03:58:41.145Z,964.79
2018-03-22T03:59:41.112Z,964.83
2018-03-22T04:00:41.078Z,964.78
2018-03-22T04:01:41.046Z,964.83
2018-03-22T04:02:41.014Z,964.81
2018-03-22T04:03:40.982Z,964.83
2018-03-22T04:04:40.948Z,964.77
2018-03-22T04:05:40.916Z,964.81
2018-03-22T04:06:40.885Z,964.77
2018-03-22T04:07:40.851Z,964.77
2018-03-22T04:08:40.819Z,964.78
2018-03-22T04:09:41.536Z,964.74
2018-03-22T04:10:40.752Z,964.77
2018-03-22T04:11:40.727Z,964.75
2018-03-22T04:12:40.687Z,964.73
2018-03-22T04:13:40.655Z,964.72
2018-03-22T04:14:40.621Z,964.71
2018-03-22T04:15:40.589Z,964.68
2018-03-22T04:16:40.557Z,964.71
2018-03-22T04:17:40.524Z,964.66
2018-03-22T04:18:40.492Z,964.67
2018-03-22T04:19:40.459Z,964.67
2018-03-22T04:20:40.431Z,964.68
2018-03-22T04:21:40.393Z,964.68
2018-03-22T04:22:40.361Z,964.67
2018-03-22T04:23:40.331Z,964.67
2018-03-22T04:24:40.297Z,964.64
2018-03-22T04:25:40.262Z,964.67
2018-03-22T04:26:40.233Z,964.60
2018-03-22T04:27:40.197Z,964.59
2018-03-22T04:28:40.163Z,964.60
2018-03-22T04:29:40.131Z,964.57
2018-03-22T04:30:40.102Z,964.57
2018-03-22T04:31:40.067Z,964.50
2018-03-22T04:32:40.035Z,964.52
2018-03-22T04:33:40.000Z,964.59
2018-03-22T04:34:39.967Z,964.54
2018-03-22T04:35:39.939Z,964.59
2018-03-22T04:36:39.901Z,964.54
2018-03-22T04:37:39.868Z,964.54
2018-03-22T04:38:39.835Z,964.55
2018-03-22T04:39:39.804Z,964.57
2018-03-22T04:40:39.769Z,964.58
2018-03-22T04:41:39.739Z,964.55
2018-03-22T04:42:39.705Z,964.56
2018-03-22T04:43:39.673Z,964.58
2018-03-22T04:44:39.643Z,964.60
2018-03-22T04:45:39.609Z,964.60
2018-03-22T04:46:39.573Z,964.63
2018-03-22T04:47:39.541Z,964.62
2018-03-22T04:48:39.509Z,964.65
2018-03-22T04:49:39.475Z,964.61
2018-03-22T04:50:39.446Z,964.64
2018-03-22T04:51:39.409Z,964.56
2018-03-22T04:52:39.376Z,964.57
2018-03-22T04:53:39.346Z,964.50
2018-03-22T04:54:39.330Z,964.51
2018-03-22T04:55:39.278Z,964.47
2018-03-22T04:56:39.245Z,964.48
2018-03-22T04:57:39.212Z,964.43
2018-03-22T04:58:39.180Z,964.40
2018-03-22T04:59:39.147Z,964.36
2018-03-22T05:00:39.114Z,964.36
2018-03-22T05:01:39.087Z,964.35
2018-03-22T05:02:39.047Z,964.33
2018-03-22T05:03:39.016Z,964.35
2018-03-22T05:04:38.982Z,964.35
2018-03-22T05:05:38.950Z,964.34
2018-03-22T05:06:38.917Z,964.33
2018-03-22T05:07:38.884Z,964.34
2018-03-22T05:08:38.852Z,964.40
2018-03-22T05:09:38.819Z,964.38
2018-03-22T05:10:38.787Z,964.36
2018-03-22T05:11:38.754Z,964.36
2018-03-22T05:12:38.720Z,964.34
2018-03-22T05:13:38.696Z,964.36
2018-03-22T05:14:38.655Z,964.36
2018-03-22T05:15:38.623Z,964.36
2018-03-22T05:16:38.590Z,964.36
2018-03-22T05:17:38.558Z,964.35
2018-03-22T05:18:38.547Z,964.38
2018-03-22T05:19:38.492Z,964.33
2018-03-22T05:20:38.459Z,964.35
2018-03-22T05:21:38.427Z,964.29
2018-03-22T05:22:38.394Z,964.31
2018-03-22T05:23:38.362Z,964.30
2018-03-22T05:24:38.329Z,964.28
2018-03-22T05:25:38.297Z,964.22
2018-03-22T05:26:38.264Z,964.23
2018-03-22T05:27:38.231Z,964.28
2018-03-22T05:28:38.197Z,964.25
2018-03-22T05:29:38.167Z,964.24
2018-03-22T05:30:38.134Z,964.26
2018-03-22T05:31:38.102Z,964.24
2018-03-22T05:32:38.068Z,964.23
2018-03-22T05:33:38.036Z,964.21
2018-03-22T05:34:38.003Z,964.18
2018-03-22T05:35:37.973Z,964.20
2018-03-22T05:36:37.938Z,964.17
2018-03-22T05:37:37.907Z,964.13
2018-03-22T05:38:37.874Z,964.20
2018-03-22T05:39:37.841Z,964.19
2018-03-22T05:40:37.808Z,964.22
2018-03-22T05:41:37.776Z,964.21
2018-03-22T05:42:37.744Z,964.26
2018-03-22T05:43:37.714Z,964.27
2018-03-22T05:44:37.678Z,964.28
2018-03-22T05:45:37.647Z,964.29
2018-03-22T05:46:37.614Z,964.29
2018-03-22T05:47:37.582Z,964.26
2018-03-22T05:48:38.300Z,964.26
2018-03-22T05:49:37.517Z,964.24
2018-03-22T05:50:37.484Z,964.23
2018-03-22T05:51:37.455Z,964.22
2018-03-22T05:52:37.420Z,964.21
2018-03-22T05:53:37.388Z,964.23
2018-03-22T05:54:37.358Z,964.18
2018-03-22T05:55:37.325Z,964.19
2018-03-22T05:56:37.290Z,964.19
2018-03-22T05:57:37.259Z,964.25
2018-03-22T05:58:37.227Z,964.21
2018-03-22T05:59:37.195Z,964.20
2018-03-22T06:00:37.162Z,964.24
2018-03-22T06:01:37.130Z,964.22
2018-03-22T06:02:37.099Z,964.29
2018-03-22T06:03:37.067Z,964.32
2018-03-22T06:04:37.034Z,964.34
2018-03-22T06:05:37.001Z,964.34
2018-03-22T06:06:36.968Z,964.37
2018-03-22T06:07:36.940Z,964.37
2018-03-22T06:08:36.905Z,964.39
2018-03-22T06:09:36.872Z,964.43
2018-03-22T06:10:36.841Z,964.43
2018-03-22T06:11:36.809Z,964.42
2018-03-22T06:12:36.776Z,964.44
2018-03-22T06:13:36.745Z,964.48
2018-03-22T06:14:36.713Z,964.43
2018-03-22T06:15:36.681Z,964.44
2018-03-22T06:16:36.648Z,964.43
2018-03-22T06:17:36.616Z,964.39
2018-03-22T06:18:36.585Z,964.44
2018-03-22T06:19:36.554Z,964.46
2018-03-22T06:20:36.520Z,964.46
2018-03-22T06:21:36.488Z,964.51
2018-03-22T06:22:36.457Z,964.53
2018-03-22T06:23:36.424Z,964.48
2018-03-22T06:24:36.392Z,964.44
2018-03-22T06:25:36.361Z,964.43
2018-03-22T06:26:36.328Z,964.39
2018-03-22T06:27:36.297Z,964.36
2018-03-22T06:28:36.265Z,964.29
2018-03-22T06:29:36.232Z,964.26
2018-03-22T06:30:36.201Z,964.24
2018-03-22T06:31:36.170Z,964.27
2018-03-22T06:32:36.137Z,964.27
2018-03-22T06:33:36.105Z,964.26
2018-03-22T06:34:36.074Z,964.23
2018-03-22T06:35:36.043Z,964.23
2018-03-22T06:36:36.761Z,964.25
2018-03-22T06:37:35.979Z,964.25
2018-03-22T06:38:35.948Z,964.26
2018-03-22T06:39:35.955Z,964.23
2018-03-22T06:40:35.883Z,964.24
2018-03-22T06:41:35.852Z,964.25
2018-03-22T06:42:35.826Z,964.28
2018-03-22T06:43:35.790Z,964.23
2018-03-22T06:44:35.759Z,964.27
2018-03-22T06:45:35.727Z,964.24
2018-03-22T06:46:35.695Z,964.16
2018-03-22T06:47:35.664Z,964.20
2018-03-22T06:48:35.632Z,964.19
2018-03-22T06:49:35.646Z,964.23
2018-03-22T06:50:35.569Z,964.22
2018-03-22T06:51:35.540Z,964.26
2018-03-22T06:52:35.506Z,964.18
2018-03-22T06:53:35.474Z,964.20
2018-03-22T06:54:35.449Z,964.18
2018-03-22T06:55:35.418Z,964.14
2018-03-22T06:56:35.381Z,964.11
2018-03-22T06:57:35.351Z,964.08
2018-03-22T06:58:35.319Z,964.12
2018-03-22T06:59:35.289Z,964.07
2018-03-22T07:00:35.257Z,964.07
2018-03-22T07:01:35.226Z,964.09
2018-03-22T07:02:35.195Z,964.07
2018-03-22T07:03:35.163Z,964.10
2018-03-22T07:04:35.132Z,964.10
2018-03-22T07:05:35.101Z,964.11
2018-03-22T07:06:35.071Z,964.08
2018-03-22T07:07:35.039Z,964.06
2018-03-22T07:08:35.009Z,964.04
2018-03-22T07:09:34.976Z,964.08
2018-03-22T07:10:34.947Z,964.06
2018-03-22T07:11:34.916Z,964.00
2018-03-22T07:12:34.884Z,964.03
2018-03-22T07:13:34.852Z,964.00
2018-03-22T07:14:34.845Z,963.99
2018-03-22T07:15:34.792Z,963.97
2018-03-22T07:16:34.760Z,963.95
2018-03-22T07:17:34.730Z,963.96
2018-03-22T07:18:34.700Z,963.91
2018-03-22T07:19:34.668Z,963.95
2018-03-22T07:20:34.638Z,963.96
2018-03-22T07:21:34.611Z,963.94
2018-03-22T07:22:34.576Z,963.96
2018-03-22T07:23:34.546Z,963.99
2018-03-22T07:24:36.766Z,964.00
2018-03-22T07:25:34.484Z,963.98
2018-03-22T07:26:34.459Z,963.98
2018-03-22T07:27:34.436Z,963.97
2018-03-22T07:28:34.391Z,963.97
2018-03-22T07:29:34.361Z,963.97
2018-03-22T07:30:36.580Z,963.93
2018-03-22T07:31:34.298Z,963.93
2018-03-22T07:32:34.268Z,963.94
2018-03-22T07:33:34.238Z,963.88
2018-03-22T07:34:34.206Z,963.91
2018-03-22T07:35:34.177Z,963.91
2018-03-22T07:36:34.147Z,963.92
2018-03-22T07:37:34.114Z,963.91
2018-03-22T07:38:34.085Z,963.93
2018-03-22T07:39:34.054Z,963.91
2018-03-22T07:40:34.023Z,963.92
2018-03-22T07:41:34.047Z,963.91
2018-03-22T07:42:33.963Z,963.93
2018-03-22T07:43:33.932Z,963.95
2018-03-22T07:44:33.902Z,963.95
2018-03-22T07:45:33.870Z,963.99
2018-03-22T07:46:33.843Z,963.94
2018-03-22T07:47:33.812Z,963.98
2018-03-22T07:48:33.779Z,963.95
2018-03-22T07:49:33.749Z,963.94
2018-03-22T07:50:33.772Z,963.91
2018-03-22T07:51:33.689Z,963.92
2018-03-22T07:52:33.658Z,963.89
2018-03-22T07:53:33.628Z,963.85
2018-03-22T07:54:33.600Z,963.88
2018-03-22T07:55:33.574Z,963.84
2018-03-22T07:56:33.537Z,963.85
2018-03-22T07:57:33.509Z,963.83
2018-03-22T07:58:34.979Z,963.83
2018-03-22T07:59:33.447Z,963.82
2018-03-22T08:00:33.417Z,963.82
2018-03-22T08:01:33.387Z,963.85
2018-03-22T08:02:33.356Z,963.83
2018-03-22T08:03:33.332Z,963.82
2018-03-22T08:04:34.047Z,963.80
2018-03-22T08:05:33.266Z,963.81
2018-03-22T08:06:33.236Z,963.76
2018-03-22T08:07:33.205Z,963.79
2018-03-22T08:08:33.174Z,963.73
2018-03-22T08:09:33.145Z,963.79
2018-03-22T08:10:33.115Z,963.78
2018-03-22T08:11:33.086Z,963.80
2018-03-22T08:12:33.055Z,963.82
2018-03-22T08:13:33.024Z,963.83
2018-03-22T08:14:33.000Z,963.84
2018-03-22T08:15:32.965Z,963.85
2018-03-22T08:16:32.935Z,963.85
2018-03-22T08:17:32.905Z,963.85
2018-03-22T08:18:32.874Z,963.84
2018-03-22T08:19:32.845Z,963.80
2018-03-22T08:20:32.830Z,963.81
2018-03-22T08:21:32.784Z,963.75
2018-03-22T08:22:32.755Z,963.71
2018-03-22T08:23:32.726Z,963.73
2018-03-22T08:24:32.695Z,963.69
2018-03-22T08:25:32.665Z,963.71
2018-03-22T08:26:32.637Z,963.69
2018-03-22T08:27:32.606Z,963.64
2018-03-22T08:28:32.576Z,963.67
2018-03-22T08:29:32.546Z,963.66
2018-03-22T08:30:32.517Z,963.69
2018-03-22T08:31:33.239Z,963.66
2018-03-22T08:32:32.459Z,963.65
2018-03-22T08:33:32.427Z,963.63
2018-03-22T08:34:32.398Z,963.62
2018-03-22T08:35:32.369Z,963.61
2018-03-22T08:36:32.340Z,963.57
2018-03-22T08:37:32.312Z,963.55
2018-03-22T08:38:32.281Z,963.54
2018-03-22T08:39:32.254Z,963.60
2018-03-22T08:40:32.222Z,963.58
2018-03-22T08:41:32.203Z,963.62
2018-03-22T08:42:32.165Z,963.57
2018-03-22T08:43:32.134Z,963.59
2018-03-22T08:44:32.105Z,963.57
2018-03-22T08:45:32.076Z,963.57
2018-03-22T08:46:32.048Z,963.59
2018-03-22T08:47:32.018Z,963.62
2018-03-22T08:48:31.989Z,963.65
2018-03-22T08:49:31.960Z,963.64
2018-03-22T08:50:31.931Z,963.61
2018-03-22T08:51:31.903Z,963.65
2018-03-22T08:52:34.126Z,963.64
2018-03-22T08:53:31.844Z,963.67
2018-03-22T08:54:31.815Z,963.64
2018-03-22T08:55:31.788Z,963.62
2018-03-22T08:56:31.757Z,963.64
2018-03-22T08:57:31.729Z,963.62
2018-03-22T08:58:31.701Z,963.61
2018-03-22T08:59:31.673Z,963.62
2018-03-22T09:00:31.644Z,963.60
2018-03-22T09:01:31.615Z,963.61
2018-03-22T09:02:31.587Z,963.60
2018-03-22T09:03:31.564Z,963.57
2018-03-22T09:04:31.531Z,963.52
2018-03-22T09:05:31.505Z,963.54
2018-03-22T09:06:31.475Z,963.52
2018-03-22T09:07:31.447Z,963.46
2018-03-22T09:08:31.418Z,963.45
2018-03-22T09:09:31.434Z,963.46
2018-03-22T09:10:31.364Z,963.44
2018-03-22T09:11:31.336Z,963.44
2018-03-22T09:12:31.307Z,963.47
2018-03-22T09:13:31.280Z,963.46
2018-03-22T09:14:31.253Z,963.51
2018-03-22T09:15:31.226Z,963.45
2018-03-22T09:16:31.198Z,963.43
2018-03-22T09:17:31.170Z,963.47
2018-03-22T09:18:31.144Z,963.42
2018-03-22T09:19:31.117Z,963.39
2018-03-22T09:20:31.090Z,963.39
2018-03-22T09:21:31.062Z,963.39
2018-03-22T09:22:31.089Z,963.38
2018-03-22T09:23:31.020Z,963.34
2018-03-22T09:24:30.987Z,963.34
2018-03-22T09:25:30.957Z,963.34
2018-03-22T09:26:30.927Z,963.35
2018-03-22T09:27:30.901Z,963.32
2018-03-22T09:28:30.874Z,963.32
2018-03-22T09:29:30.846Z,963.30
2018-03-22T09:30:30.820Z,963.31
2018-03-22T09:31:34.546Z,963.36
2018-03-22T09:32:30.766Z,963.35
2018-03-22T09:33:30.739Z,963.34
2018-03-22T09:34:30.712Z,963.31
2018-03-22T09:35:30.688Z,963.32
2018-03-22T09:36:30.662Z,963.31
2018-03-22T09:37:32.133Z,963.29
2018-03-22T09:38:30.608Z,963.33
2018-03-22T09:39:30.575Z,963.33
2018-03-22T09:40:30.548Z,963.34
2018-03-22T09:41:30.522Z,963.34
2018-03-22T09:42:30.496Z,963.34
2018-03-22T09:43:30.468Z,963.36
2018-03-22T09:44:30.440Z,963.32
2018-03-22T09:45:30.414Z,963.34
2018-03-22T09:46:30.389Z,963.32
2018-03-22T09:47:30.361Z,963.33
2018-03-22T09:48:30.335Z,963.28
2018-03-22T09:49:30.305Z,963.29
2018-03-22T09:50:30.279Z,963.27
2018-03-22T09:51:30.253Z,963.25
2018-03-22T09:52:30.226Z,963.20
2018-03-22T09:53:30.199Z,963.23
2018-03-22T09:54:30.173Z,963.22
2018-03-22T09:55:30.146Z,963.23
2018-03-22T09:56:30.119Z,963.24
2018-03-22T09:57:30.091Z,963.27
2018-03-22T09:58:30.065Z,963.28
2018-03-22T09:59:30.039Z,963.25
2018-03-22T10:00:30.012Z,963.27
2018-03-22T10:01:29.984Z,963.25
2018-03-22T10:02:29.963Z,963.24
2018-03-22T10:03:29.933Z,963.23
2018-03-22T10:04:29.904Z,963.23
2018-03-22T10:05:29.876Z,963.19
2018-03-22T10:06:29.852Z,963.19
2018-03-22T10:07:29.825Z,963.17
2018-03-22T10:08:29.850Z,963.18
2018-03-22T10:09:29.769Z,963.12
2018-03-22T10:10:29.745Z,963.06
2018-03-22T10:11:29.717Z,963.06
2018-03-22T10:12:29.690Z,963.11
2018-03-22T10:13:29.663Z,963.10
2018-03-22T10:14:29.637Z,963.01
2018-03-22T10:15:29.610Z,963.07
2018-03-22T10:16:29.584Z,963.06
2018-03-22T10:17:29.557Z,963.04
2018-03-22T10:18:29.530Z,963.10
2018-03-22T10:19:29.508Z,963.09
2018-03-22T10:20:29.474Z,963.12
2018-03-22T10:21:29.451Z,963.09
2018-03-22T10:22:29.421Z,963.13
2018-03-22T10:23:29.398Z,963.12
2018-03-22T10:24:29.369Z,963.06
2018-03-22T10:25:29.342Z,963.00
2018-03-22T10:26:29.316Z,963.00
2018-03-22T10:27:29.289Z,962.99
2018-03-22T10:28:29.262Z,962.96
2018-03-22T10:29:29.234Z,962.95
2018-03-22T10:30:29.208Z,962.93
2018-03-22T10:31:29.183Z,962.93
2018-03-22T10:32:29.158Z,962.94
2018-03-22T10:33:29.129Z,962.96
2018-03-22T10:34:29.102Z,962.89
2018-03-22T10:35:29.079Z,962.84
2018-03-22T10:36:29.050Z,962.81
2018-03-22T10:37:29.021Z,962.73
2018-03-22T10:38:28.996Z,962.76
2018-03-22T10:39:28.968Z,962.70
2018-03-22T10:40:28.941Z,962.64
2018-03-22T10:41:28.915Z,962.66
2018-03-22T10:42:28.890Z,962.60
2018-03-22T10:43:28.864Z,962.62
2018-03-22T10:44:28.837Z,962.57
2018-03-22T10:45:28.814Z,962.55
2018-03-22T10:46:28.784Z,962.50
2018-03-22T10:47:28.759Z,962.48
2018-03-22T10:48:28.790Z,962.43
2018-03-22T10:49:28.708Z,962.38
2018-03-22T10:50:28.680Z,962.35
2018-03-22T10:51:28.662Z,962.34
2018-03-22T10:52:28.628Z,962.31
2018-03-22T10:53:28.654Z,962.31
2018-03-22T10:54:28.577Z,962.31
2018-03-22T10:55:28.552Z,962.26
2018-03-22T10:56:28.526Z,962.28
2018-03-22T10:57:28.498Z,962.23
2018-03-22T10:58:29.225Z,962.17
2018-03-22T10:59:28.450Z,962.11
2018-03-22T11:00:28.431Z,962.09
2018-03-22T11:01:28.397Z,962.04
2018-03-22T11:02:28.374Z,962.01
2018-03-22T11:03:28.345Z,962.04
2018-03-22T11:04:28.319Z,962.03
2018-03-22T11:05:28.293Z,962.05
2018-03-22T11:06:28.268Z,962.07
2018-03-22T11:07:28.241Z,962.11
2018-03-22T11:08:28.215Z,962.08
2018-03-22T11:09:28.190Z,962.08
2018-03-22T11:10:28.163Z,962.03
2018-03-22T11:11:28.138Z,962.06
2018-03-22T11:12:28.112Z,962.03
2018-03-22T11:13:28.087Z,961.96
2018-03-22T11:14:28.061Z,961.96
2018-03-22T11:15:28.036Z,961.96
2018-03-22T11:16:28.009Z,961.97
2018-03-22T11:17:27.985Z,961.92
2018-03-22T11:18:27.963Z,961.91
2018-03-22T11:19:28.686Z,961.91
2018-03-22T11:20:27.908Z,961.83
2018-03-22T11:21:27.883Z,961.86
2018-03-22T11:22:27.857Z,961.84
2018-03-22T11:23:27.834Z,961.82
2018-03-22T11:24:27.807Z,961.86
2018-03-22T11:25:27.782Z,961.84
2018-03-22T11:26:27.758Z,961.83
2018-03-22T11:27:27.771Z,961.79
2018-03-22T11:28:27.707Z,961.82
2018-03-22T11:29:27.682Z,961.74
2018-03-22T11:30:27.658Z,961.73
2018-03-22T11:31:27.631Z,961.72
2018-03-22T11:32:27.607Z,961.71
2018-03-22T11:33:27.584Z,961.77
2018-03-22T11:34:27.600Z,961.74
2018-03-22T11:35:27.533Z,961.71
2018-03-22T11:36:27.508Z,961.71
2018-03-22T11:37:27.484Z,961.73
2018-03-22T11:38:27.460Z,961.74
2018-03-22T11:39:27.434Z,961.77
2018-03-22T11:40:27.410Z,961.76
2018-03-22T11:41:27.386Z,961.76
2018-03-22T11:42:27.362Z,961.71
2018-03-22T11:43:27.347Z,961.74
2018-03-22T11:44:27.316Z,961.71
2018-03-22T11:45:27.292Z,961.73
2018-03-22T11:46:27.264Z,961.70
2018-03-22T11:47:27.241Z,961.71
2018-03-22T11:48:27.215Z,961.67
2018-03-22T11:49:27.191Z,961.63
2018-03-22T11:50:27.168Z,961.59
2018-03-22T11:51:27.894Z,961.60
2018-03-22T11:52:27.118Z,961.60
2018-03-22T11:53:27.094Z,961.58
2018-03-22T11:54:27.071Z,961.57
2018-03-22T11:55:27.047Z,961.55
2018-03-22T11:56:27.076Z,961.51
2018-03-22T11:57:26.998Z,961.52
2018-03-22T11:58:26.974Z,961.51
2018-03-22T11:59:26.954Z,961.49
2018-03-22T12:00:26.934Z,961.48
2018-03-22T12:01:26.903Z,961.39
2018-03-22T12:02:26.879Z,961.33
2018-03-22T12:03:26.855Z,961.29
2018-03-22T12:04:26.831Z,961.27
2018-03-22T12:05:26.807Z,961.20
2018-03-22T12:06:26.784Z,961.18
2018-03-22T12:07:29.012Z,961.15
2018-03-22T12:08:26.735Z,961.09
2018-03-22T12:09:26.713Z,961.07
2018-03-22T12:10:26.690Z,961.08
2018-03-22T12:11:26.668Z,961.06
2018-03-22T12:12:26.662Z,961.05
2018-03-22T12:13:28.120Z,961.03
2018-03-22T12:14:26.595Z,961.01
2018-03-22T12:15:26.573Z,960.95
2018-03-22T12:16:26.549Z,960.92
2018-03-22T12:17:26.525Z,960.94
2018-03-22T12:18:26.507Z,960.89
2018-03-22T12:19:27.229Z,960.87
2018-03-22T12:20:26.456Z,960.87
2018-03-22T12:21:26.433Z,960.85
2018-03-22T12:22:26.409Z,960.78
2018-03-22T12:23:26.385Z,960.81
2018-03-22T12:24:26.399Z,960.82
2018-03-22T12:25:26.339Z,960.81
2018-03-22T12:26:26.316Z,960.77
2018-03-22T12:27:26.293Z,960.75
2018-03-22T12:28:26.269Z,960.71